Dati Storici

Data ora Umidita' aria (%) Temperatura aria (°C) Rad globale (W/m²) Gonioanemometro (°) Tacoanemometro (m/s) Pioggia (mm)
21-10-2012 16:00 71.8 % 17.929 220.614 73.781 0.942 0
21-10-2012 15:50 71.7 % 18.32 253.172 103.871 1.261 0
21-10-2012 15:40 72.1 % 18.765 294.362 134.834 0.491 0
21-10-2012 15:30 73.2 % 18.24 332.095 99.612 1.494 0
21-10-2012 15:20 72.5 % 17.939 198.068 126.989 0.724 0
21-10-2012 15:10 71.4 % 18.645 402.706 118.331 0.139 0
21-10-2012 15:00 71.2 % 18.478 337.053 93.69 0.769 0
21-10-2012 14:50 72.7 % 18.563 393.511 127.097 0.558 0
21-10-2012 14:40 74.5 % 17.826 249.098 105.401 0.919 0
21-10-2012 14:30 75.2 % 17.397 196.746 145.396 1.072 0
21-10-2012 14:20 75 % 17.358 213.272 132.166 0.989 0
21-10-2012 14:10 74.6 % 17.399 198.908 113.489 1.696 0
21-10-2012 14:00 73.8 % 17.38 222.088 124.913 0.857 0
21-10-2012 13:50 73.1 % 17.202 206.192 158.072 1.427 0
21-10-2012 13:40 72.1 % 17.734 270.923 202.767 1.056 0
21-10-2012 13:30 72.5 % 17.312 381.28 130.922 1.188 0
21-10-2012 13:20 71.7 % 17.14 316.527 188.319 1.237 0
21-10-2012 13:10 72 % 17.89 333.921 181.114 0.332 0
21-10-2012 13:00 72 % 18.238 332.156 97.342 0.871 0
21-10-2012 12:50 72.8 % 18.087 458.243 121.574 0.846 0

I dati sono presentati in modo automatico a scopo informativo. In seguito a verifica i dati possono subire modifiche o essere invalidati e non riportati negli archivi definitivi.